sensor_id;sensor_type;location;lat;lon;timestamp;pressure;altitude;pressure_sealevel;temperature;humidity
31062;BME280;17724;53.546;9.974;2023-07-09T00:02:02;101981.31;;;22.16;58.99
31062;BME280;17724;53.546;9.974;2023-07-09T00:06:03;101971.16;;;22.20;59.01
31062;BME280;17724;53.546;9.974;2023-07-09T00:10:19;101968.94;;;21.84;59.67
31062;BME280;17724;53.546;9.974;2023-07-09T00:14:20;101979.13;;;21.94;59.64
31062;BME280;17724;53.546;9.974;2023-07-09T00:18:20;101979.56;;;21.87;59.53
31062;BME280;17724;53.546;9.974;2023-07-09T00:22:21;101977.47;;;21.93;59.47
31062;BME280;17724;53.546;9.974;2023-07-09T00:26:21;101983.28;;;21.82;59.89
31062;BME280;17724;53.546;9.974;2023-07-09T00:30:24;101987.41;;;21.85;59.81
31062;BME280;17724;53.546;9.974;2023-07-09T00:34:24;101977.50;;;21.74;59.93
31062;BME280;17724;53.546;9.974;2023-07-09T00:38:26;101985.53;;;21.80;59.74
31062;BME280;17724;53.546;9.974;2023-07-09T00:42:27;101989.03;;;21.72;60.03
31062;BME280;17724;53.546;9.974;2023-07-09T00:54:37;101974.59;;;21.46;60.08
31062;BME280;17724;53.546;9.974;2023-07-09T00:58:43;101982.31;;;21.54;59.92
31062;BME280;17724;53.546;9.974;2023-07-09T01:02:48;101973.91;;;21.54;59.60
31062;BME280;17724;53.546;9.974;2023-07-09T01:06:51;101970.28;;;21.54;59.46
31062;BME280;17724;53.546;9.974;2023-07-09T01:10:52;101967.63;;;21.25;60.34
31062;BME280;17724;53.546;9.974;2023-07-09T01:14:55;101964.63;;;21.40;59.78
31062;BME280;17724;53.546;9.974;2023-07-09T01:19:00;101958.41;;;21.24;59.89
31062;BME280;17724;53.546;9.974;2023-07-09T01:23:01;101964.75;;;21.30;59.46
31062;BME280;17724;53.546;9.974;2023-07-09T01:27:02;101960.28;;;21.10;60.05
31062;BME280;17724;53.546;9.974;2023-07-09T01:31:04;101961.19;;;21.05;59.99
31062;BME280;17724;53.546;9.974;2023-07-09T01:35:05;101971.75;;;20.89;60.18
31062;BME280;17724;53.546;9.974;2023-07-09T01:39:06;101973.59;;;20.99;59.99
31062;BME280;17724;53.546;9.974;2023-07-09T01:43:07;101960.94;;;21.02;59.45
31062;BME280;17724;53.546;9.974;2023-07-09T01:47:07;101963.94;;;20.86;59.68
31062;BME280;17724;53.546;9.974;2023-07-09T01:51:10;101972.34;;;20.86;59.81
31062;BME280;17724;53.546;9.974;2023-07-09T01:55:13;101982.22;;;21.03;59.33
31062;BME280;17724;53.546;9.974;2023-07-09T01:59:17;101978.72;;;20.92;58.83
31062;BME280;17724;53.546;9.974;2023-07-09T02:03:17;101971.00;;;20.84;59.00
31062;BME280;17724;53.546;9.974;2023-07-09T02:07:19;101969.34;;;20.83;59.13
31062;BME280;17724;53.546;9.974;2023-07-09T02:11:20;101965.03;;;20.66;59.17
31062;BME280;17724;53.546;9.974;2023-07-09T02:15:20;101958.75;;;20.80;59.07
31062;BME280;17724;53.546;9.974;2023-07-09T02:19:21;101953.75;;;20.77;59.19
31062;BME280;17724;53.546;9.974;2023-07-09T02:23:26;101957.38;;;20.77;58.92
31062;BME280;17724;53.546;9.974;2023-07-09T02:27:27;101961.38;;;20.71;58.50
31062;BME280;17724;53.546;9.974;2023-07-09T02:31:30;101959.53;;;20.61;58.61
31062;BME280;17724;53.546;9.974;2023-07-09T02:35:30;101961.34;;;20.47;59.20
31062;BME280;17724;53.546;9.974;2023-07-09T02:39:31;101960.50;;;20.52;58.87
31062;BME280;17724;53.546;9.974;2023-07-09T02:43:31;101953.25;;;20.51;59.29
31062;BME280;17724;53.546;9.974;2023-07-09T02:47:32;101960.03;;;20.39;59.65
31062;BME280;17724;53.546;9.974;2023-07-09T02:51:34;101961.38;;;20.42;59.38
31062;BME280;17724;53.546;9.974;2023-07-09T02:55:34;101964.25;;;20.37;59.12
31062;BME280;17724;53.546;9.974;2023-07-09T02:59:35;101969.34;;;20.30;59.08
31062;BME280;17724;53.546;9.974;2023-07-09T03:03:35;101963.72;;;20.35;58.66
31062;BME280;17724;53.546;9.974;2023-07-09T03:07:36;101960.44;;;20.28;58.88
31062;BME280;17724;53.546;9.974;2023-07-09T03:11:36;101975.19;;;20.33;58.42
31062;BME280;17724;53.546;9.974;2023-07-09T03:15:38;101968.09;;;20.17;58.88
31062;BME280;17724;53.546;9.974;2023-07-09T03:19:38;101967.84;;;20.13;58.67
31062;BME280;17724;53.546;9.974;2023-07-09T03:23:38;101972.34;;;20.09;58.50
31062;BME280;17724;53.546;9.974;2023-07-09T03:27:39;101975.59;;;20.22;58.25
31062;BME280;17724;53.546;9.974;2023-07-09T03:31:39;101982.56;;;19.95;58.74
31062;BME280;17724;53.546;9.974;2023-07-09T03:35:40;101977.28;;;20.17;58.39
31062;BME280;17724;53.546;9.974;2023-07-09T03:39:40;101989.50;;;19.98;57.95
31062;BME280;17724;53.546;9.974;2023-07-09T03:43:41;101990.50;;;20.12;58.24
31062;BME280;17724;53.546;9.974;2023-07-09T03:47:41;101984.34;;;20.10;57.90
31062;BME280;17724;53.546;9.974;2023-07-09T03:51:42;101992.22;;;20.03;58.24
31062;BME280;17724;53.546;9.974;2023-07-09T03:55:44;101992.47;;;20.06;58.06
31062;BME280;17724;53.546;9.974;2023-07-09T03:59:46;101987.94;;;20.15;57.64
31062;BME280;17724;53.546;9.974;2023-07-09T04:03:46;101981.88;;;20.08;57.43
31062;BME280;17724;53.546;9.974;2023-07-09T04:07:47;101985.25;;;20.05;56.97
31062;BME280;17724;53.546;9.974;2023-07-09T04:11:48;101991.97;;;20.04;56.78
31062;BME280;17724;53.546;9.974;2023-07-09T04:15:49;101988.59;;;20.07;56.63
31062;BME280;17724;53.546;9.974;2023-07-09T04:19:50;101991.81;;;20.20;56.42
31062;BME280;17724;53.546;9.974;2023-07-09T04:23:51;101992.53;;;20.30;55.27
31062;BME280;17724;53.546;9.974;2023-07-09T04:27:51;101995.09;;;20.27;55.25
31062;BME280;17724;53.546;9.974;2023-07-09T04:31:52;102003.25;;;20.23;55.12
31062;BME280;17724;53.546;9.974;2023-07-09T04:35:53;101998.66;;;20.32;55.01
31062;BME280;17724;53.546;9.974;2023-07-09T04:39:53;101993.66;;;20.00;54.92
31062;BME280;17724;53.546;9.974;2023-07-09T04:43:53;101994.84;;;20.23;54.99
31062;BME280;17724;53.546;9.974;2023-07-09T04:47:54;101983.94;;;20.27;54.22
31062;BME280;17724;53.546;9.974;2023-07-09T04:51:54;101978.88;;;20.29;54.15
31062;BME280;17724;53.546;9.974;2023-07-09T04:55:56;101971.72;;;20.17;54.14
31062;BME280;17724;53.546;9.974;2023-07-09T04:59:57;101983.13;;;20.21;53.99
31062;BME280;17724;53.546;9.974;2023-07-09T05:03:58;101986.63;;;20.08;54.11
31062;BME280;17724;53.546;9.974;2023-07-09T05:07:58;101998.41;;;20.29;53.69
31062;BME280;17724;53.546;9.974;2023-07-09T05:11:59;102004.91;;;20.24;53.44
31062;BME280;17724;53.546;9.974;2023-07-09T05:16:00;102005.47;;;20.50;52.55
31062;BME280;17724;53.546;9.974;2023-07-09T05:20:00;102006.75;;;20.63;52.35
31062;BME280;17724;53.546;9.974;2023-07-09T05:24:01;102012.25;;;20.44;52.22
31062;BME280;17724;53.546;9.974;2023-07-09T05:28:02;102009.19;;;20.40;52.06
31062;BME280;17724;53.546;9.974;2023-07-09T05:32:04;102003.84;;;20.44;52.14
31062;BME280;17724;53.546;9.974;2023-07-09T05:36:04;101993.13;;;20.56;51.60
31062;BME280;17724;53.546;9.974;2023-07-09T05:40:07;101995.50;;;20.68;51.48
31062;BME280;17724;53.546;9.974;2023-07-09T05:44:07;101995.91;;;20.56;51.33
31062;BME280;17724;53.546;9.974;2023-07-09T05:48:09;102003.94;;;20.87;50.78
31062;BME280;17724;53.546;9.974;2023-07-09T05:52:09;102000.09;;;21.02;50.63
31062;BME280;17724;53.546;9.974;2023-07-09T05:56:10;101996.34;;;21.11;50.35
31062;BME280;17724;53.546;9.974;2023-07-09T06:00:11;101995.13;;;21.17;50.71
31062;BME280;17724;53.546;9.974;2023-07-09T06:04:16;101999.38;;;21.15;50.90
31062;BME280;17724;53.546;9.974;2023-07-09T06:08:17;101996.88;;;21.13;50.81
31062;BME280;17724;53.546;9.974;2023-07-09T06:12:18;101994.41;;;21.31;50.79
31062;BME280;17724;53.546;9.974;2023-07-09T06:16:19;101998.50;;;21.57;50.53
31062;BME280;17724;53.546;9.974;2023-07-09T06:20:20;102002.19;;;21.72;49.94
31062;BME280;17724;53.546;9.974;2023-07-09T06:24:21;101987.25;;;21.95;49.53
31062;BME280;17724;53.546;9.974;2023-07-09T06:28:23;101990.06;;;22.28;48.78
31062;BME280;17724;53.546;9.974;2023-07-09T06:32:24;102006.06;;;22.69;48.21
31062;BME280;17724;53.546;9.974;2023-07-09T06:36:24;102011.94;;;22.26;49.19
31062;BME280;17724;53.546;9.974;2023-07-09T06:40:25;102009.81;;;22.64;49.08
31062;BME280;17724;53.546;9.974;2023-07-09T06:44:26;102011.75;;;22.22;49.67
31062;BME280;17724;53.546;9.974;2023-07-09T06:48:28;102013.00;;;22.44;49.14
31062;BME280;17724;53.546;9.974;2023-07-09T06:52:29;102023.50;;;22.66;48.98
31062;BME280;17724;53.546;9.974;2023-07-09T06:56:30;102018.22;;;23.05;48.17
31062;BME280;17724;53.546;9.974;2023-07-09T07:00:33;102011.59;;;23.01;47.91
31062;BME280;17724;53.546;9.974;2023-07-09T07:04:34;102010.91;;;23.32;47.93
31062;BME280;17724;53.546;9.974;2023-07-09T07:08:35;101997.34;;;23.48;47.41
31062;BME280;17724;53.546;9.974;2023-07-09T07:12:44;102000.09;;;23.61;47.61
31062;BME280;17724;53.546;9.974;2023-07-09T07:16:44;102004.06;;;23.38;47.61
31062;BME280;17724;53.546;9.974;2023-07-09T07:20:46;102001.47;;;23.28;48.39
31062;BME280;17724;53.546;9.974;2023-07-09T07:24:46;102005.84;;;23.70;48.15
31062;BME280;17724;53.546;9.974;2023-07-09T07:28:47;102000.53;;;23.91;48.06
31062;BME280;17724;53.546;9.974;2023-07-09T07:32:48;102001.69;;;23.68;48.03
31062;BME280;17724;53.546;9.974;2023-07-09T07:36:49;102006.03;;;23.96;48.08
31062;BME280;17724;53.546;9.974;2023-07-09T07:40:50;101996.88;;;24.13;47.97
31062;BME280;17724;53.546;9.974;2023-07-09T07:44:50;102001.81;;;24.07;47.84
31062;BME280;17724;53.546;9.974;2023-07-09T07:48:52;102000.56;;;24.53;47.54
31062;BME280;17724;53.546;9.974;2023-07-09T07:52:52;102003.75;;;24.61;47.21
31062;BME280;17724;53.546;9.974;2023-07-09T07:56:53;101995.44;;;24.95;46.69
31062;BME280;17724;53.546;9.974;2023-07-09T08:00:55;102004.06;;;25.07;46.38
31062;BME280;17724;53.546;9.974;2023-07-09T08:04:57;101993.53;;;25.22;45.97
31062;BME280;17724;53.546;9.974;2023-07-09T08:08:58;101998.19;;;25.26;45.83
31062;BME280;17724;53.546;9.974;2023-07-09T08:12:58;101992.06;;;25.59;45.95
31062;BME280;17724;53.546;9.974;2023-07-09T08:16:59;101995.84;;;25.37;45.35
31062;BME280;17724;53.546;9.974;2023-07-09T08:21:00;101989.56;;;25.40;45.31
31062;BME280;17724;53.546;9.974;2023-07-09T08:25:00;101983.28;;;25.78;45.53
31062;BME280;17724;53.546;9.974;2023-07-09T08:29:01;101993.19;;;26.10;44.65
31062;BME280;17724;53.546;9.974;2023-07-09T08:33:01;101989.72;;;25.96;44.23
31062;BME280;17724;53.546;9.974;2023-07-09T08:37:02;101987.41;;;25.98;44.60
31062;BME280;17724;53.546;9.974;2023-07-09T08:49:41;101985.28;;;26.33;43.92
31062;BME280;17724;53.546;9.974;2023-07-09T08:53:56;101987.69;;;26.61;42.76
31062;BME280;17724;53.546;9.974;2023-07-09T08:58:02;101984.25;;;26.55;42.94
31062;BME280;17724;53.546;9.974;2023-07-09T09:02:03;101978.44;;;26.90;42.07
31062;BME280;17724;53.546;9.974;2023-07-09T09:06:19;101973.06;;;26.97;42.18
31062;BME280;17724;53.546;9.974;2023-07-09T09:10:33;101958.72;;;27.11;41.88
31062;BME280;17724;53.546;9.974;2023-07-09T09:14:39;101966.88;;;27.33;41.97
31062;BME280;17724;53.546;9.974;2023-07-09T09:18:43;101966.03;;;27.54;42.41
31062;BME280;17724;53.546;9.974;2023-07-09T09:22:49;101972.19;;;27.68;41.95
31062;BME280;17724;53.546;9.974;2023-07-09T09:26:51;101966.19;;;27.90;41.53
31062;BME280;17724;53.546;9.974;2023-07-09T09:30:53;101963.16;;;27.95;40.72
31062;BME280;17724;53.546;9.974;2023-07-09T09:34:54;101957.88;;;28.06;40.64
31062;BME280;17724;53.546;9.974;2023-07-09T09:38:54;101952.00;;;28.23;40.52
31062;BME280;17724;53.546;9.974;2023-07-09T09:42:58;101956.84;;;28.23;40.83
31062;BME280;17724;53.546;9.974;2023-07-09T09:47:01;101951.34;;;28.51;41.13
31062;BME280;17724;53.546;9.974;2023-07-09T09:51:04;101950.53;;;28.75;40.40
31062;BME280;17724;53.546;9.974;2023-07-09T09:55:17;101950.50;;;28.87;41.18
31062;BME280;17724;53.546;9.974;2023-07-09T09:59:21;101958.97;;;29.24;40.47
31062;BME280;17724;53.546;9.974;2023-07-09T10:03:35;101955.16;;;29.32;40.67
31062;BME280;17724;53.546;9.974;2023-07-09T10:07:44;101946.66;;;29.32;40.43
31062;BME280;17724;53.546;9.974;2023-07-09T10:11:58;101947.84;;;29.31;40.30
31062;BME280;17724;53.546;9.974;2023-07-09T10:16:10;101946.25;;;29.58;40.12
31062;BME280;17724;53.546;9.974;2023-07-09T10:20:24;101951.22;;;29.49;39.13
31062;BME280;17724;53.546;9.974;2023-07-09T10:29:35;101961.69;;;30.17;38.08
31062;BME280;17724;53.546;9.974;2023-07-09T10:39:19;101943.03;;;30.04;38.72
31062;BME280;17724;53.546;9.974;2023-07-09T10:42:58;101941.91;;;30.36;38.54
31062;BME280;17724;53.546;9.974;2023-07-09T10:47:04;101943.41;;;30.97;37.47
31062;BME280;17724;53.546;9.974;2023-07-09T10:51:16;101920.47;;;30.55;37.42
31062;BME280;17724;53.546;9.974;2023-07-09T10:55:26;101936.47;;;30.63;37.35
31062;BME280;17724;53.546;9.974;2023-07-09T10:59:34;101949.03;;;30.78;36.77
31062;BME280;17724;53.546;9.974;2023-07-09T11:03:43;101944.84;;;31.26;36.41
31062;BME280;17724;53.546;9.974;2023-07-09T11:11:53;101922.69;;;32.62;34.41
31062;BME280;17724;53.546;9.974;2023-07-09T11:15:55;101919.50;;;34.32;32.39
31062;BME280;17724;53.546;9.974;2023-07-09T11:20:06;101926.25;;;34.14;30.66
31062;BME280;17724;53.546;9.974;2023-07-09T11:24:29;101912.59;;;32.42;33.06
31062;BME280;17724;53.546;9.974;2023-07-09T11:28:34;101904.03;;;31.54;35.08
31062;BME280;17724;53.546;9.974;2023-07-09T11:32:45;101900.16;;;30.88;35.84
31062;BME280;17724;53.546;9.974;2023-07-09T11:40:55;101895.22;;;31.39;35.70
31062;BME280;17724;53.546;9.974;2023-07-09T11:45:09;101898.34;;;31.34;35.38
31062;BME280;17724;53.546;9.974;2023-07-09T11:49:11;101897.06;;;31.12;35.91
31062;BME280;17724;53.546;9.974;2023-07-09T11:57:13;101887.56;;;31.24;36.14
31062;BME280;17724;53.546;9.974;2023-07-09T12:01:19;101887.13;;;31.22;35.96
31062;BME280;17724;53.546;9.974;2023-07-09T12:05:26;101888.94;;;31.50;34.56
31062;BME280;17724;53.546;9.974;2023-07-09T12:09:33;101879.28;;;31.35;34.22
31062;BME280;17724;53.546;9.974;2023-07-09T12:13:38;101876.81;;;31.33;34.26
31062;BME280;17724;53.546;9.974;2023-07-09T12:17:39;101878.59;;;31.61;33.33
31062;BME280;17724;53.546;9.974;2023-07-09T12:21:44;101865.75;;;31.71;32.62
31062;BME280;17724;53.546;9.974;2023-07-09T12:25:52;101846.41;;;31.57;32.16
31062;BME280;17724;53.546;9.974;2023-07-09T12:29:55;101856.66;;;31.23;31.75
31062;BME280;17724;53.546;9.974;2023-07-09T12:33:58;101859.59;;;31.46;31.67
31062;BME280;17724;53.546;9.974;2023-07-09T12:37:59;101849.56;;;31.52;32.31
31062;BME280;17724;53.546;9.974;2023-07-09T12:42:01;101845.16;;;31.54;31.57
31062;BME280;17724;53.546;9.974;2023-07-09T12:46:02;101818.34;;;31.55;31.68
31062;BME280;17724;53.546;9.974;2023-07-09T12:50:21;101840.88;;;31.87;32.34
31062;BME280;17724;53.546;9.974;2023-07-09T12:54:22;101832.34;;;31.64;32.28
31062;BME280;17724;53.546;9.974;2023-07-09T12:58:27;101843.59;;;31.80;32.74
31062;BME280;17724;53.546;9.974;2023-07-09T13:02:28;101831.19;;;31.46;32.54
31062;BME280;17724;53.546;9.974;2023-07-09T13:06:34;101835.22;;;31.68;32.92
31062;BME280;17724;53.546;9.974;2023-07-09T13:10:41;101823.38;;;31.85;32.87
31062;BME280;17724;53.546;9.974;2023-07-09T13:14:42;101830.50;;;31.98;32.64
31062;BME280;17724;53.546;9.974;2023-07-09T13:18:42;101837.22;;;31.86;32.12
31062;BME280;17724;53.546;9.974;2023-07-09T13:22:44;101832.09;;;31.96;32.24
31062;BME280;17724;53.546;9.974;2023-07-09T13:26:45;101811.69;;;31.90;31.68
31062;BME280;17724;53.546;9.974;2023-07-09T13:30:48;101816.97;;;32.14;31.09
31062;BME280;17724;53.546;9.974;2023-07-09T13:34:50;101813.97;;;32.04;31.28
31062;BME280;17724;53.546;9.974;2023-07-09T13:38:50;101815.97;;;32.03;30.93
31062;BME280;17724;53.546;9.974;2023-07-09T13:42:51;101814.63;;;32.20;31.71
31062;BME280;17724;53.546;9.974;2023-07-09T13:46:53;101815.38;;;32.17;31.00
31062;BME280;17724;53.546;9.974;2023-07-09T13:50:54;101797.69;;;32.04;30.96
31062;BME280;17724;53.546;9.974;2023-07-09T13:54:56;101821.28;;;32.31;30.48
31062;BME280;17724;53.546;9.974;2023-07-09T13:58:56;101814.47;;;32.36;30.69
31062;BME280;17724;53.546;9.974;2023-07-09T14:02:57;101810.28;;;32.30;30.63
31062;BME280;17724;53.546;9.974;2023-07-09T14:06:57;101815.28;;;32.36;31.29
31062;BME280;17724;53.546;9.974;2023-07-09T14:10:58;101802.09;;;32.25;30.45
31062;BME280;17724;53.546;9.974;2023-07-09T14:15:00;101795.19;;;32.26;30.73
31062;BME280;17724;53.546;9.974;2023-07-09T14:19:01;101777.00;;;32.34;30.60
31062;BME280;17724;53.546;9.974;2023-07-09T14:23:01;101774.84;;;32.27;29.98
31062;BME280;17724;53.546;9.974;2023-07-09T14:27:07;101769.38;;;32.15;30.23
31062;BME280;17724;53.546;9.974;2023-07-09T14:31:22;101760.88;;;32.42;30.65
31062;BME280;17724;53.546;9.974;2023-07-09T14:35:25;101757.69;;;32.47;29.76
31062;BME280;17724;53.546;9.974;2023-07-09T14:39:27;101764.84;;;32.37;29.80
31062;BME280;17724;53.546;9.974;2023-07-09T14:43:28;101758.91;;;32.46;29.85
31062;BME280;17724;53.546;9.974;2023-07-09T14:47:29;101760.63;;;32.54;29.79
31062;BME280;17724;53.546;9.974;2023-07-09T14:51:29;101755.28;;;32.49;28.79
31062;BME280;17724;53.546;9.974;2023-07-09T14:55:30;101752.75;;;32.44;28.72
31062;BME280;17724;53.546;9.974;2023-07-09T14:59:30;101749.91;;;32.44;28.80
31062;BME280;17724;53.546;9.974;2023-07-09T15:03:31;101749.25;;;32.54;28.73
31062;BME280;17724;53.546;9.974;2023-07-09T15:07:31;101730.03;;;32.47;28.55
31062;BME280;17724;53.546;9.974;2023-07-09T15:11:32;101736.50;;;32.44;28.88
31062;BME280;17724;53.546;9.974;2023-07-09T15:15:32;101725.19;;;32.51;28.80
31062;BME280;17724;53.546;9.974;2023-07-09T15:19:33;101727.97;;;32.44;28.81
31062;BME280;17724;53.546;9.974;2023-07-09T15:23:36;101705.81;;;32.34;28.82
31062;BME280;17724;53.546;9.974;2023-07-09T15:27:40;101696.53;;;32.37;27.97
31062;BME280;17724;53.546;9.974;2023-07-09T15:31:40;101687.59;;;32.38;28.08
31062;BME280;17724;53.546;9.974;2023-07-09T15:35:43;101680.09;;;32.27;27.96
31062;BME280;17724;53.546;9.974;2023-07-09T15:39:43;101686.03;;;32.41;28.09
31062;BME280;17724;53.546;9.974;2023-07-09T15:43:44;101662.25;;;32.30;28.02
31062;BME280;17724;53.546;9.974;2023-07-09T15:47:46;101665.94;;;32.30;28.17
31062;BME280;17724;53.546;9.974;2023-07-09T15:51:47;101665.50;;;32.28;28.32
31062;BME280;17724;53.546;9.974;2023-07-09T15:55:48;101659.22;;;32.16;28.73
31062;BME280;17724;53.546;9.974;2023-07-09T15:59:48;101659.72;;;32.21;28.81
31062;BME280;17724;53.546;9.974;2023-07-09T16:03:51;101645.69;;;32.05;29.16
31062;BME280;17724;53.546;9.974;2023-07-09T16:07:54;101647.38;;;32.10;28.87
31062;BME280;17724;53.546;9.974;2023-07-09T16:11:55;101629.47;;;32.09;29.12
31062;BME280;17724;53.546;9.974;2023-07-09T16:15:58;101615.66;;;32.08;29.11
31062;BME280;17724;53.546;9.974;2023-07-09T16:20:02;101593.56;;;31.98;29.12
31062;BME280;17724;53.546;9.974;2023-07-09T16:24:16;101616.81;;;32.07;28.34
31062;BME280;17724;53.546;9.974;2023-07-09T16:28:18;101618.50;;;32.08;28.88
31062;BME280;17724;53.546;9.974;2023-07-09T16:32:20;101606.50;;;31.95;28.67
31062;BME280;17724;53.546;9.974;2023-07-09T16:36:20;101615.78;;;31.88;28.78
31062;BME280;17724;53.546;9.974;2023-07-09T16:40:31;101638.59;;;31.92;28.92
31062;BME280;17724;53.546;9.974;2023-07-09T16:44:32;101640.28;;;31.97;29.54
31062;BME280;17724;53.546;9.974;2023-07-09T16:48:32;101646.28;;;31.92;29.50
31062;BME280;17724;53.546;9.974;2023-07-09T16:52:33;101646.69;;;31.90;29.70
31062;BME280;17724;53.546;9.974;2023-07-09T16:56:33;101658.50;;;31.92;29.88
31062;BME280;17724;53.546;9.974;2023-07-09T17:00:35;101653.34;;;31.75;30.39
31062;BME280;17724;53.546;9.974;2023-07-09T17:04:36;101677.63;;;31.69;31.21
31062;BME280;17724;53.546;9.974;2023-07-09T17:08:36;101651.47;;;31.59;31.19
31062;BME280;17724;53.546;9.974;2023-07-09T17:12:37;101672.31;;;31.67;32.02
31062;BME280;17724;53.546;9.974;2023-07-09T17:16:37;101660.84;;;31.60;31.98
31062;BME280;17724;53.546;9.974;2023-07-09T17:20:38;101653.81;;;31.54;32.60
31062;BME280;17724;53.546;9.974;2023-07-09T17:24:40;101659.38;;;31.47;33.12
31062;BME280;17724;53.546;9.974;2023-07-09T17:28:40;101664.75;;;31.52;33.04
31062;BME280;17724;53.546;9.974;2023-07-09T17:32:45;101654.16;;;31.49;33.38
31062;BME280;17724;53.546;9.974;2023-07-09T17:36:46;101650.47;;;31.25;33.85
31062;BME280;17724;53.546;9.974;2023-07-09T17:40:46;101645.88;;;31.17;34.24
31062;BME280;17724;53.546;9.974;2023-07-09T17:44:47;101659.56;;;31.11;34.48
31062;BME280;17724;53.546;9.974;2023-07-09T17:48:47;101650.69;;;31.13;34.34
31062;BME280;17724;53.546;9.974;2023-07-09T17:52:50;101658.25;;;31.05;34.73
31062;BME280;17724;53.546;9.974;2023-07-09T17:56:54;101646.94;;;30.86;34.87
31062;BME280;17724;53.546;9.974;2023-07-09T18:00:59;101651.09;;;30.92;35.09
31062;BME280;17724;53.546;9.974;2023-07-09T18:05:00;101649.09;;;30.92;35.41
31062;BME280;17724;53.546;9.974;2023-07-09T18:09:00;101637.97;;;30.84;35.25
31062;BME280;17724;53.546;9.974;2023-07-09T18:13:07;101641.03;;;30.75;35.43
31062;BME280;17724;53.546;9.974;2023-07-09T18:17:15;101635.44;;;30.59;35.96
31062;BME280;17724;53.546;9.974;2023-07-09T18:21:16;101646.44;;;30.61;35.74
31062;BME280;17724;53.546;9.974;2023-07-09T18:25:18;101643.69;;;30.45;35.71
31062;BME280;17724;53.546;9.974;2023-07-09T18:29:29;101657.81;;;30.41;35.89
31062;BME280;17724;53.546;9.974;2023-07-09T18:33:30;101668.91;;;30.31;36.23
31062;BME280;17724;53.546;9.974;2023-07-09T18:37:31;101671.09;;;30.18;36.30
31062;BME280;17724;53.546;9.974;2023-07-09T18:41:32;101675.31;;;30.08;36.82
31062;BME280;17724;53.546;9.974;2023-07-09T18:45:32;101648.97;;;29.92;36.93
31062;BME280;17724;53.546;9.974;2023-07-09T18:49:33;101654.00;;;29.99;36.86
31062;BME280;17724;53.546;9.974;2023-07-09T18:53:33;101655.50;;;29.92;36.94
31062;BME280;17724;53.546;9.974;2023-07-09T18:57:35;101647.34;;;29.91;37.44
31062;BME280;17724;53.546;9.974;2023-07-09T19:01:36;101652.56;;;29.89;38.28
31062;BME280;17724;53.546;9.974;2023-07-09T19:05:37;101656.88;;;29.83;39.48
31062;BME280;17724;53.546;9.974;2023-07-09T19:09:38;101652.53;;;29.69;40.68
31062;BME280;17724;53.546;9.974;2023-07-09T19:13:39;101662.16;;;29.65;40.83
31062;BME280;17724;53.546;9.974;2023-07-09T19:17:39;101659.94;;;29.58;42.31
31062;BME280;17724;53.546;9.974;2023-07-09T19:21:40;101672.19;;;29.46;42.13
31062;BME280;17724;53.546;9.974;2023-07-09T19:25:41;101663.50;;;29.39;42.99
31062;BME280;17724;53.546;9.974;2023-07-09T19:29:41;101676.94;;;29.42;43.13
31062;BME280;17724;53.546;9.974;2023-07-09T19:33:42;101683.31;;;29.24;43.50
31062;BME280;17724;53.546;9.974;2023-07-09T19:37:43;101691.38;;;29.21;43.38
31062;BME280;17724;53.546;9.974;2023-07-09T19:41:43;101703.78;;;29.01;43.27
31062;BME280;17724;53.546;9.974;2023-07-09T19:45:46;101709.34;;;28.98;43.98
31062;BME280;17724;53.546;9.974;2023-07-09T19:49:50;101711.03;;;28.86;43.99
31062;BME280;17724;53.546;9.974;2023-07-09T19:53:51;101797.00;;;28.94;44.13
31062;BME280;17724;53.546;9.974;2023-07-09T19:57:52;101844.41;;;28.57;45.64
31062;BME280;17724;53.546;9.974;2023-07-09T20:01:53;101872.47;;;28.25;47.46
31062;BME280;17724;53.546;9.974;2023-07-09T20:05:54;101890.47;;;28.08;49.94
31062;BME280;17724;53.546;9.974;2023-07-09T20:09:55;101938.13;;;27.31;54.09
31062;BME280;17724;53.546;9.974;2023-07-09T20:13:55;101966.47;;;26.63;58.71
31062;BME280;17724;53.546;9.974;2023-07-09T20:17:58;101992.81;;;26.20;61.45
31062;BME280;17724;53.546;9.974;2023-07-09T20:21:58;102006.81;;;25.73;64.73
31062;BME280;17724;53.546;9.974;2023-07-09T20:25:59;102002.66;;;25.53;64.67
31062;BME280;17724;53.546;9.974;2023-07-09T20:30:01;102000.66;;;25.37;66.42
31062;BME280;17724;53.546;9.974;2023-07-09T20:34:15;102020.38;;;25.45;66.75
31062;BME280;17724;53.546;9.974;2023-07-09T20:38:18;102026.09;;;25.05;67.68
31062;BME280;17724;53.546;9.974;2023-07-09T20:42:19;102043.09;;;24.92;68.76
31062;BME280;17724;53.546;9.974;2023-07-09T20:46:20;102055.38;;;24.65;70.96
31062;BME280;17724;53.546;9.974;2023-07-09T20:50:21;102043.78;;;24.57;71.16
31062;BME280;17724;53.546;9.974;2023-07-09T20:54:26;102059.09;;;24.74;71.62
31062;BME280;17724;53.546;9.974;2023-07-09T20:58:27;102065.78;;;24.55;73.20
31062;BME280;17724;53.546;9.974;2023-07-09T21:02:28;102027.47;;;24.77;71.74
31062;BME280;17724;53.546;9.974;2023-07-09T21:06:29;102014.41;;;24.81;72.73
31062;BME280;17724;53.546;9.974;2023-07-09T21:10:29;102000.06;;;24.51;76.52
31062;BME280;17724;53.546;9.974;2023-07-09T21:14:30;102001.41;;;24.23;78.57
31062;BME280;17724;53.546;9.974;2023-07-09T21:18:33;102014.28;;;24.24;80.70
31062;BME280;17724;53.546;9.974;2023-07-09T21:22:34;102018.66;;;24.07;84.19
31062;BME280;17724;53.546;9.974;2023-07-09T21:26:35;102023.47;;;24.07;86.27
31062;BME280;17724;53.546;9.974;2023-07-09T21:30:36;102002.38;;;23.73;88.83
31062;BME280;17724;53.546;9.974;2023-07-09T21:34:36;102003.22;;;23.74;88.21
31062;BME280;17724;53.546;9.974;2023-07-09T21:38:36;102000.38;;;23.38;92.44
31062;BME280;17724;53.546;9.974;2023-07-09T21:42:37;101981.19;;;23.31;93.69
31062;BME280;17724;53.546;9.974;2023-07-09T21:46:38;101956.00;;;23.03;98.79